Time;durP1;ratioP1;P1;durP2;ratioP2;P2;SDS_P1;SDS_P2;PMS_P1;PMS_P2;Temp;Humidity;BMP_temperature;BMP_pressure;BME280_temperature;BME280_humidity;BME280_pressure;Samples;Min_cycle;Max_cycle;Signal;HPM_P1;HPM_P2
2023/05/22 00:00:37;;;;;;;25.70;19.58;;;;;;;;;;5029521;28;20045;-78
2023/05/22 00:03:04;;;;;;;22.58;19.17;;;;;;;;;;5018907;28;20050;-78
2023/05/22 00:05:30;;;;;;;23.63;18.08;;;;;;;;;;5043785;28;20053;-78
2023/05/22 00:07:56;;;;;;;23.83;18.02;;;;;;;;;;5030248;28;20084;-78
2023/05/22 00:10:23;;;;;;;22.42;18.35;;;;;;;;;;5026428;28;20037;-78
2023/05/22 00:12:49;;;;;;;22.08;17.83;;;;;;;;;;5029534;28;20116;-78
2023/05/22 00:15:15;;;;;;;21.38;16.27;;;;;;;;;;5028862;28;20044;-77
2023/05/22 00:17:44;;;;;;;18.50;14.85;;;;;;;;;;5029707;28;20045;-78
2023/05/22 00:20:10;;;;;;;21.50;17.48;;;;;;;;;;5029587;28;20037;-78
2023/05/22 00:22:37;;;;;;;25.95;20.92;;;;;;;;;;5026864;28;20276;-78
2023/05/22 00:25:03;;;;;;;22.58;19.85;;;;;;;;;;5029867;28;20052;-78
2023/05/22 00:27:29;;;;;;;26.05;20.00;;;;;;;;;;5029711;28;20057;-78
2023/05/22 00:29:55;;;;;;;26.75;21.58;;;;;;;;;;5026726;28;20042;-78
2023/05/22 00:32:21;;;;;;;19.55;17.25;;;;;;;;;;5027042;28;20095;-78
2023/05/22 00:34:47;;;;;;;21.92;18.00;;;;;;;;;;5031680;28;20497;-78
2023/05/22 00:37:13;;;;;;;26.33;20.27;;;;;;;;;;5024319;28;20564;-78
2023/05/22 00:39:39;;;;;;;24.08;19.13;;;;;;;;;;5023489;28;20087;-79
2023/05/22 00:42:05;;;;;;;23.10;18.73;;;;;;;;;;5031153;28;20038;-79
2023/05/22 00:44:31;;;;;;;24.73;20.13;;;;;;;;;;5029075;28;20050;-78
2023/05/22 00:46:58;;;;;;;27.02;20.73;;;;;;;;;;5028345;28;20049;-80
2023/05/22 00:49:24;;;;;;;23.55;21.00;;;;;;;;;;5022194;28;20042;-80
2023/05/22 00:51:50;;;;;;;23.33;20.83;;;;;;;;;;5019512;28;20812;-79
2023/05/22 00:54:16;;;;;;;23.23;20.75;;;;;;;;;;5025096;28;20043;-79
2023/05/22 00:56:42;;;;;;;26.08;22.65;;;;;;;;;;5017066;28;20045;-80
2023/05/22 00:59:08;;;;;;;25.45;21.85;;;;;;;;;;5028879;28;20547;-79
2023/05/22 01:01:40;;;;;;;26.48;21.35;;;;;;;;;;5044402;28;20396;-79
2023/05/22 01:04:08;;;;;;;28.00;21.45;;;;;;;;;;5029628;28;20543;-79
2023/05/22 01:06:34;;;;;;;22.90;20.15;;;;;;;;;;5028122;28;20131;-79
2023/05/22 01:09:00;;;;;;;25.80;22.58;;;;;;;;;;5031084;28;20440;-79
2023/05/22 01:11:36;;;;;;;25.27;21.08;;;;;;;;;;5027327;28;20746;-80
2023/05/22 01:14:19;;;;;;;22.88;20.05;;;;;;;;;;5026388;28;20045;-80
2023/05/22 01:16:51;;;;;;;23.50;20.17;;;;;;;;;;5030890;28;20046;-79
2023/05/22 01:19:35;;;;;;;19.63;16.13;;;;;;;;;;5025646;28;20041;-79
2023/05/22 01:22:21;;;;;;;18.85;16.77;;;;;;;;;;5028289;28;20047;-79
2023/05/22 01:24:47;;;;;;;22.50;19.85;;;;;;;;;;5030490;28;20048;-79
2023/05/22 01:27:24;;;;;;;20.73;17.27;;;;;;;;;;5027847;28;20056;-79
2023/05/22 01:30:03;;;;;;;20.77;16.45;;;;;;;;;;5024989;28;20053;-80
2023/05/22 01:32:29;;;;;;;20.17;16.35;;;;;;;;;;5023679;28;20955;-82
2023/05/22 01:34:57;;;;;;;29.38;23.42;;;;;;;;;;5029682;28;20045;-80
2023/05/22 01:37:23;;;;;;;29.80;25.15;;;;;;;;;;5027262;28;20045;-81
2023/05/22 01:39:51;;;;;;;29.27;23.23;;;;;;;;;;5023102;28;20435;-80
2023/05/22 01:42:17;;;;;;;24.23;20.60;;;;;;;;;;5028267;28;20439;-81
2023/05/22 01:44:43;;;;;;;23.35;20.83;;;;;;;;;;5022270;28;20087;-82
2023/05/22 01:47:09;;;;;;;25.35;22.25;;;;;;;;;;5025690;28;20041;-81
2023/05/22 01:49:36;;;;;;;32.85;24.17;;;;;;;;;;5023538;28;20049;-81
2023/05/22 01:52:02;;;;;;;34.83;26.02;;;;;;;;;;5028767;28;20056;-81
2023/05/22 01:54:29;;;;;;;31.50;22.58;;;;;;;;;;5021139;28;20428;-80
2023/05/22 01:57:01;;;;;;;31.17;23.98;;;;;;;;;;5021056;28;20121;-80
2023/05/22 01:59:39;;;;;;;26.33;21.55;;;;;;;;;;5018115;28;20050;-80
2023/05/22 02:02:07;;;;;;;29.52;24.60;;;;;;;;;;5023894;28;20124;-80
2023/05/22 02:04:36;;;;;;;31.50;24.58;;;;;;;;;;5027174;28;20048;-80
2023/05/22 02:07:02;;;;;;;31.52;25.88;;;;;;;;;;5026363;28;20128;-80
2023/05/22 02:09:30;;;;;;;36.70;25.42;;;;;;;;;;5022359;28;20400;-80
2023/05/22 02:11:56;;;;;;;31.60;25.00;;;;;;;;;;5028359;28;20049;-80
2023/05/22 02:14:23;;;;;;;27.17;23.45;;;;;;;;;;5025917;28;20048;-80
2023/05/22 02:16:49;;;;;;;30.20;25.15;;;;;;;;;;5026972;28;20045;-80
2023/05/22 02:19:15;;;;;;;26.42;22.88;;;;;;;;;;5024218;28;20041;-80
2023/05/22 02:21:42;;;;;;;30.08;24.55;;;;;;;;;;5022692;28;20042;-79
2023/05/22 02:24:08;;;;;;;29.55;25.33;;;;;;;;;;5024582;28;20038;-79
2023/05/22 02:26:34;;;;;;;30.80;25.25;;;;;;;;;;5028688;28;20530;-80
2023/05/22 02:29:00;;;;;;;31.63;25.40;;;;;;;;;;5026454;28;20053;-80
2023/05/22 02:31:26;;;;;;;30.83;26.20;;;;;;;;;;5022295;28;20069;-80
2023/05/22 02:33:52;;;;;;;32.30;25.65;;;;;;;;;;5027117;28;20041;-80
2023/05/22 02:36:18;;;;;;;34.72;27.38;;;;;;;;;;5027002;28;20055;-80
2023/05/22 02:38:44;;;;;;;32.80;25.42;;;;;;;;;;5021827;28;20041;-80
2023/05/22 02:41:10;;;;;;;31.65;25.88;;;;;;;;;;5027711;28;20481;-80
2023/05/22 02:43:36;;;;;;;28.17;24.15;;;;;;;;;;5027638;28;20041;-80
2023/05/22 02:46:02;;;;;;;30.65;22.60;;;;;;;;;;5025861;28;20050;-80
2023/05/22 02:48:28;;;;;;;28.42;21.38;;;;;;;;;;5025033;28;20046;-80
2023/05/22 02:50:54;;;;;;;30.50;20.85;;;;;;;;;;5026989;28;20164;-80
2023/05/22 02:53:20;;;;;;;27.02;22.10;;;;;;;;;;5026531;28;20076;-79
2023/05/22 02:55:47;;;;;;;28.55;19.88;;;;;;;;;;5022105;28;20045;-79
2023/05/22 02:58:13;;;;;;;31.80;21.40;;;;;;;;;;5020769;28;20048;-79
2023/05/22 03:00:42;;;;;;;26.50;18.88;;;;;;;;;;5025761;28;20069;-80
2023/05/22 03:03:08;;;;;;;22.98;17.80;;;;;;;;;;5022769;28;20049;-79
2023/05/22 03:05:34;;;;;;;31.50;21.33;;;;;;;;;;5015212;28;20053;-79
2023/05/22 03:08:00;;;;;;;27.35;20.40;;;;;;;;;;5026468;28;20049;-79
2023/05/22 03:10:26;;;;;;;33.85;21.83;;;;;;;;;;5026898;28;20049;-79
2023/05/22 03:12:52;;;;;;;25.77;18.30;;;;;;;;;;5028939;28;20050;-80
2023/05/22 03:15:21;;;;;;;24.25;18.50;;;;;;;;;;5027928;28;20037;-80
2023/05/22 03:17:47;;;;;;;30.08;18.45;;;;;;;;;;5023533;28;20049;-79
2023/05/22 03:20:16;;;;;;;30.55;18.73;;;;;;;;;;5020494;28;20042;-79
2023/05/22 03:22:43;;;;;;;30.10;18.95;;;;;;;;;;5026340;28;20553;-79
2023/05/22 03:25:09;;;;;;;25.88;18.20;;;;;;;;;;5030085;28;20038;-79
2023/05/22 03:27:35;;;;;;;27.02;17.00;;;;;;;;;;5029679;28;20045;-80
2023/05/22 03:30:02;;;;;;;26.15;17.50;;;;;;;;;;5031723;28;20431;-79
2023/05/22 03:32:28;;;;;;;34.33;23.00;;;;;;;;;;5030106;28;20103;-80
2023/05/22 03:34:55;;;;;;;34.47;20.58;;;;;;;;;;5031224;28;20041;-80
2023/05/22 03:37:20;;;;;;;26.10;19.50;;;;;;;;;;5028662;28;20045;-80
2023/05/22 03:39:47;;;;;;;34.97;23.02;;;;;;;;;;5026904;28;20468;-79
2023/05/22 03:42:13;;;;;;;32.97;22.60;;;;;;;;;;5027150;28;20064;-79
2023/05/22 03:44:39;;;;;;;31.15;23.17;;;;;;;;;;5031787;28;20045;-78
2023/05/22 03:47:05;;;;;;;33.00;23.30;;;;;;;;;;5028410;28;20056;-80
2023/05/22 03:49:31;;;;;;;37.38;23.52;;;;;;;;;;5029728;28;20037;-79
2023/05/22 03:51:57;;;;;;;30.85;24.38;;;;;;;;;;5031781;28;20485;-79
2023/05/22 03:54:23;;;;;;;35.67;25.23;;;;;;;;;;5028055;28;20064;-79
2023/05/22 03:56:50;;;;;;;35.80;27.15;;;;;;;;;;5029623;28;20044;-79
2023/05/22 03:59:16;;;;;;;35.35;26.45;;;;;;;;;;5031595;28;20401;-79
2023/05/22 04:01:42;;;;;;;38.65;27.83;;;;;;;;;;5029185;28;20505;-79
2023/05/22 04:04:10;;;;;;;33.08;27.30;;;;;;;;;;5029917;28;20041;-78
2023/05/22 04:06:41;;;;;;;35.25;27.77;;;;;;;;;;5026201;28;20673;-79
2023/05/22 04:09:10;;;;;;;32.40;26.90;;;;;;;;;;5020392;28;20111;-78
2023/05/22 04:11:38;;;;;;;33.25;26.00;;;;;;;;;;5031675;28;20038;-79
2023/05/22 04:14:04;;;;;;;31.48;27.17;;;;;;;;;;5024091;28;20132;-79
2023/05/22 04:16:31;;;;;;;35.35;27.70;;;;;;;;;;5023437;28;20041;-79
2023/05/22 04:18:57;;;;;;;34.35;27.58;;;;;;;;;;5031130;28;20562;-79
2023/05/22 04:21:23;;;;;;;34.65;26.33;;;;;;;;;;5022109;28;20042;-79
2023/05/22 04:23:49;;;;;;;32.67;26.35;;;;;;;;;;5029603;28;20037;-79
2023/05/22 04:26:19;;;;;;;30.60;24.88;;;;;;;;;;5030588;28;20042;-79
2023/05/22 04:28:45;;;;;;;37.20;26.70;;;;;;;;;;5024009;28;20049;-79
2023/05/22 04:31:12;;;;;;;35.00;28.48;;;;;;;;;;5027550;28;20124;-78
2023/05/22 04:33:38;;;;;;;31.13;25.02;;;;;;;;;;5027401;28;20092;-79
2023/05/22 04:36:05;;;;;;;31.63;26.20;;;;;;;;;;5024886;28;20041;-79
2023/05/22 04:38:36;;;;;;;33.28;25.27;;;;;;;;;;5030206;28;20095;-80
2023/05/22 04:41:02;;;;;;;31.15;25.45;;;;;;;;;;5028369;28;20044;-79
2023/05/22 04:43:28;;;;;;;29.85;23.90;;;;;;;;;;5025346;28;20194;-79
2023/05/22 04:45:56;;;;;;;37.28;24.30;;;;;;;;;;5030006;28;20096;-81
2023/05/22 04:48:22;;;;;;;32.83;24.95;;;;;;;;;;5024185;28;20073;-79
2023/05/22 04:50:49;;;;;;;36.42;23.17;;;;;;;;;;5025810;28;20076;-79
2023/05/22 04:53:15;;;;;;;31.45;22.63;;;;;;;;;;5024859;28;20068;-78
2023/05/22 04:55:41;;;;;;;30.77;21.95;;;;;;;;;;5021938;28;20556;-79
2023/05/22 04:58:07;;;;;;;33.40;21.73;;;;;;;;;;5024150;28;20041;-79
2023/05/22 05:00:34;;;;;;;28.77;19.95;;;;;;;;;;5023288;28;20048;-79
2023/05/22 05:03:00;;;;;;;31.25;21.13;;;;;;;;;;5026580;28;20045;-79
2023/05/22 05:05:29;;;;;;;25.92;19.85;;;;;;;;;;5022101;28;21525;-79
2023/05/22 05:07:58;;;;;;;29.88;18.30;;;;;;;;;;5030240;28;20037;-79
2023/05/22 05:10:24;;;;;;;24.00;18.67;;;;;;;;;;5022463;28;20052;-79
2023/05/22 05:12:50;;;;;;;24.83;18.95;;;;;;;;;;5029054;28;20102;-79
2023/05/22 05:15:16;;;;;;;24.23;17.05;;;;;;;;;;5029986;28;20042;-79
2023/05/22 05:17:42;;;;;;;23.55;17.02;;;;;;;;;;5028851;28;20429;-78
2023/05/22 05:20:09;;;;;;;24.92;16.90;;;;;;;;;;5028420;28;20084;-78
2023/05/22 05:22:36;;;;;;;23.35;15.68;;;;;;;;;;5018837;28;20052;-79
2023/05/22 05:25:04;;;;;;;27.80;16.50;;;;;;;;;;5029343;28;20405;-79
2023/05/22 05:27:29;;;;;;;21.83;15.15;;;;;;;;;;5027507;28;20061;-80
2023/05/22 05:29:56;;;;;;;24.02;14.68;;;;;;;;;;5028858;28;20037;-79
2023/05/22 05:32:22;;;;;;;19.13;14.48;;;;;;;;;;5025606;28;20103;-80
2023/05/22 05:34:48;;;;;;;21.67;14.55;;;;;;;;;;5028972;28;20037;-79
2023/05/22 05:37:14;;;;;;;19.98;13.60;;;;;;;;;;5022066;28;20481;-79
2023/05/22 05:39:40;;;;;;;19.83;13.40;;;;;;;;;;5024807;28;20049;-79
2023/05/22 05:42:06;;;;;;;17.00;12.90;;;;;;;;;;5026159;28;20044;-79
2023/05/22 05:44:35;;;;;;;19.38;12.63;;;;;;;;;;5026418;28;20095;-79
2023/05/22 05:47:01;;;;;;;18.90;12.70;;;;;;;;;;5022135;28;20049;-80
2023/05/22 05:49:27;;;;;;;13.80;12.23;;;;;;;;;;5024712;28;20057;-80
2023/05/22 05:51:54;;;;;;;15.98;11.95;;;;;;;;;;5025103;28;20049;-79
2023/05/22 05:54:20;;;;;;;15.98;12.35;;;;;;;;;;5027253;28;20045;-79
2023/05/22 05:56:46;;;;;;;15.50;11.57;;;;;;;;;;5025803;28;20128;-79
2023/05/22 05:59:12;;;;;;;16.92;12.65;;;;;;;;;;5021107;28;20037;-74
2023/05/22 06:01:41;;;;;;;13.73;10.70;;;;;;;;;;5027709;28;20397;-79
2023/05/22 06:04:07;;;;;;;12.82;10.00;;;;;;;;;;5027182;28;20040;-79
2023/05/22 06:06:38;;;;;;;11.63;8.90;;;;;;;;;;5025201;28;20057;-80
2023/05/22 06:09:07;;;;;;;13.27;8.82;;;;;;;;;;5029127;28;20065;-80
2023/05/22 06:11:33;;;;;;;12.13;7.82;;;;;;;;;;5025031;28;20405;-80
2023/05/22 06:14:01;;;;;;;11.68;6.95;;;;;;;;;;5027056;28;20036;-80
2023/05/22 06:16:28;;;;;;;8.73;6.20;;;;;;;;;;5020416;28;20065;-80
2023/05/22 06:18:55;;;;;;;8.65;6.40;;;;;;;;;;5026336;28;20080;-81
2023/05/22 06:21:23;;;;;;;7.05;5.65;;;;;;;;;;5024965;28;20053;-80
2023/05/22 06:23:49;;;;;;;9.35;6.00;;;;;;;;;;5027525;28;20045;-81
2023/05/22 06:26:15;;;;;;;11.30;6.35;;;;;;;;;;5026777;28;20044;-80
2023/05/22 06:28:42;;;;;;;10.38;6.28;;;;;;;;;;5025670;28;20049;-79
2023/05/22 06:31:11;;;;;;;12.05;6.93;;;;;;;;;;5026699;28;20037;-79
2023/05/22 06:33:37;;;;;;;11.32;6.93;;;;;;;;;;5021940;28;20303;-79
2023/05/22 06:36:03;;;;;;;11.60;6.68;;;;;;;;;;5024956;28;20052;-80
2023/05/22 06:38:31;;;;;;;12.13;7.10;;;;;;;;;;5020271;28;20096;-79
2023/05/22 06:40:57;;;;;;;11.18;7.65;;;;;;;;;;5028758;28;20053;-79
2023/05/22 06:43:23;;;;;;;9.68;7.32;;;;;;;;;;5029498;28;20517;-80
2023/05/22 06:45:49;;;;;;;13.00;8.10;;;;;;;;;;5028715;28;20049;-80
2023/05/22 06:48:15;;;;;;;14.65;8.10;;;;;;;;;;5024469;28;20045;-80
2023/05/22 06:50:41;;;;;;;11.60;7.60;;;;;;;;;;5026038;28;20092;-79
2023/05/22 06:53:07;;;;;;;13.13;7.57;;;;;;;;;;5028167;28;20073;-80
2023/05/22 06:55:33;;;;;;;12.25;6.95;;;;;;;;;;5027588;28;20049;-80
2023/05/22 06:57:59;;;;;;;10.32;6.90;;;;;;;;;;5027354;28;20044;-79
2023/05/22 07:00:25;;;;;;;12.63;8.48;;;;;;;;;;5027858;28;20053;-80
2023/05/22 07:02:51;;;;;;;13.15;7.22;;;;;;;;;;5027342;28;20562;-80
2023/05/22 07:05:17;;;;;;;10.60;7.97;;;;;;;;;;5026468;28;20520;-80
2023/05/22 07:07:44;;;;;;;14.10;7.80;;;;;;;;;;5027595;28;20076;-79
2023/05/22 07:10:10;;;;;;;12.02;8.02;;;;;;;;;;5029211;28;20480;-79
2023/05/22 07:12:36;;;;;;;14.73;7.88;;;;;;;;;;5031365;28;20558;-80
2023/05/22 07:15:02;;;;;;;14.55;8.75;;;;;;;;;;5031314;28;20042;-79
2023/05/22 07:17:28;;;;;;;19.33;9.25;;;;;;;;;;5028657;28;20046;-77
2023/05/22 07:19:54;;;;;;;16.67;9.25;;;;;;;;;;5028575;28;20041;-79
2023/05/22 07:22:20;;;;;;;16.50;9.10;;;;;;;;;;5031316;28;20124;-78
2023/05/22 07:24:46;;;;;;;15.20;9.52;;;;;;;;;;5026901;28;20127;-79
2023/05/22 07:27:13;;;;;;;15.95;9.68;;;;;;;;;;5031058;28;20087;-79
2023/05/22 07:29:39;;;;;;;16.85;9.40;;;;;;;;;;5032037;28;20048;-79
2023/05/22 07:32:05;;;;;;;16.77;9.45;;;;;;;;;;5029766;28;20042;-79
2023/05/22 07:34:33;;;;;;;16.02;10.30;;;;;;;;;;5032100;28;20321;-79
2023/05/22 07:36:59;;;;;;;14.55;9.02;;;;;;;;;;5031253;28;20044;-80
2023/05/22 07:39:25;;;;;;;14.80;9.05;;;;;;;;;;5026795;28;20135;-80
2023/05/22 07:41:53;;;;;;;15.50;9.77;;;;;;;;;;5028759;28;20064;-79
2023/05/22 07:44:19;;;;;;;17.20;10.05;;;;;;;;;;5029442;28;20042;-79
2023/05/22 07:46:45;;;;;;;13.27;9.75;;;;;;;;;;5030109;28;20119;-80
2023/05/22 07:49:11;;;;;;;16.73;10.20;;;;;;;;;;5030485;28;20089;-79
2023/05/22 07:51:37;;;;;;;16.63;10.48;;;;;;;;;;5031716;28;20491;-79
2023/05/22 07:54:03;;;;;;;17.63;10.20;;;;;;;;;;5028372;28;20079;-79
2023/05/22 07:56:31;;;;;;;14.43;9.68;;;;;;;;;;5030191;28;20405;-80
2023/05/22 07:58:57;;;;;;;15.50;9.23;;;;;;;;;;5030763;28;20118;-79
2023/05/22 08:01:23;;;;;;;14.35;9.93;;;;;;;;;;5023477;28;20045;-79
2023/05/22 08:03:49;;;;;;;13.55;9.13;;;;;;;;;;5028768;28;20083;-79
2023/05/22 08:06:16;;;;;;;14.93;9.20;;;;;;;;;;5029411;28;20037;-78
2023/05/22 08:08:42;;;;;;;13.07;9.23;;;;;;;;;;5039296;28;20046;-79
2023/05/22 08:11:08;;;;;;;12.20;9.52;;;;;;;;;;5031255;28;20038;-78
2023/05/22 08:13:37;;;;;;;14.23;9.30;;;;;;;;;;5028494;28;20052;-80
2023/05/22 08:16:03;;;;;;;11.25;8.77;;;;;;;;;;5027821;28;20041;-80
2023/05/22 08:18:29;;;;;;;12.50;9.40;;;;;;;;;;5030909;28;20046;-79
2023/05/22 08:20:55;;;;;;;12.68;9.00;;;;;;;;;;5031600;28;20048;-80
2023/05/22 08:23:21;;;;;;;14.65;8.73;;;;;;;;;;5022167;28;20144;-79
2023/05/22 08:25:49;;;;;;;12.70;8.45;;;;;;;;;;5029474;28;20072;-79
2023/05/22 08:28:15;;;;;;;11.77;8.52;;;;;;;;;;5029694;28;20046;-79
2023/05/22 08:30:41;;;;;;;12.55;8.32;;;;;;;;;;5030139;28;20160;-79
2023/05/22 08:33:06;;;;;;;12.10;8.35;;;;;;;;;;5030114;28;20038;-79
2023/05/22 08:35:32;;;;;;;17.23;8.60;;;;;;;;;;5029924;28;20045;-79
2023/05/22 08:37:59;;;;;;;14.30;8.43;;;;;;;;;;5027140;28;20478;-78
2023/05/22 08:40:31;;;;;;;11.63;8.00;;;;;;;;;;5028778;28;20188;-79
2023/05/22 08:42:58;;;;;;;10.10;7.88;;;;;;;;;;5029672;28;20129;-80
2023/05/22 08:45:25;;;;;;;10.15;7.65;;;;;;;;;;5026027;28;20416;-79
2023/05/22 08:47:52;;;;;;;13.05;8.73;;;;;;;;;;5026351;28;20053;-79
2023/05/22 08:50:18;;;;;;;10.27;7.72;;;;;;;;;;5028863;28;20046;-79
2023/05/22 08:52:47;;;;;;;10.85;8.10;;;;;;;;;;5028754;28;20079;-79
2023/05/22 08:55:13;;;;;;;11.60;8.27;;;;;;;;;;5026579;28;20053;-78
2023/05/22 08:57:40;;;;;;;9.73;8.27;;;;;;;;;;5025571;28;20046;-79
2023/05/22 09:00:06;;;;;;;10.55;7.68;;;;;;;;;;5026854;28;20717;-77
2023/05/22 09:02:32;;;;;;;9.00;7.30;;;;;;;;;;5027848;28;20041;-80
2023/05/22 09:05:04;;;;;;;9.05;7.28;;;;;;;;;;5026457;28;20041;-77
2023/05/22 09:07:30;;;;;;;11.93;8.20;;;;;;;;;;5027947;28;20050;-76
2023/05/22 09:09:56;;;;;;;9.30;7.50;;;;;;;;;;5028482;28;20048;-77
2023/05/22 09:12:22;;;;;;;10.65;7.85;;;;;;;;;;5028830;28;20045;-77
2023/05/22 09:14:48;;;;;;;8.88;7.20;;;;;;;;;;5021423;28;20091;-77
2023/05/22 09:17:15;;;;;;;8.93;6.97;;;;;;;;;;5027997;28;20561;-76
2023/05/22 09:19:45;;;;;;;8.68;7.28;;;;;;;;;;5029592;28;20045;-77
2023/05/22 09:22:11;;;;;;;7.50;6.60;;;;;;;;;;5023901;28;20370;-76
2023/05/22 09:24:43;;;;;;;8.95;6.82;;;;;;;;;;5029688;28;20049;-77
2023/05/22 09:27:09;;;;;;;9.57;7.20;;;;;;;;;;5025038;28;20401;-77
2023/05/22 09:29:56;;;;;;;8.10;6.72;;;;;;;;;;5030258;28;20477;-78
2023/05/22 09:32:22;;;;;;;7.05;6.07;;;;;;;;;;5027414;28;20077;-77
2023/05/22 09:34:49;;;;;;;8.23;5.80;;;;;;;;;;5029255;28;20103;-77
2023/05/22 09:37:18;;;;;;;8.70;5.68;;;;;;;;;;5029563;28;20041;-77
2023/05/22 09:39:45;;;;;;;6.63;5.10;;;;;;;;;;5028922;28;20095;-76
2023/05/22 09:42:13;;;;;;;5.43;4.75;;;;;;;;;;5029044;28;20037;-77
2023/05/22 09:44:41;;;;;;;6.25;4.90;;;;;;;;;;5027769;28;20503;-77
2023/05/22 09:47:08;;;;;;;6.25;4.50;;;;;;;;;;5029146;28;20440;-78
2023/05/22 09:49:36;;;;;;;6.75;4.88;;;;;;;;;;5024074;28;20068;-78
2023/05/22 09:52:03;;;;;;;6.78;4.75;;;;;;;;;;5030111;28;20138;-76
2023/05/22 09:54:33;;;;;;;5.47;4.82;;;;;;;;;;5026051;28;20042;-77
2023/05/22 09:57:00;;;;;;;7.38;4.68;;;;;;;;;;5030142;28;20524;-77
2023/05/22 09:59:30;;;;;;;5.22;4.72;;;;;;;;;;5026122;28;20054;-77
2023/05/22 10:01:56;;;;;;;5.68;4.93;;;;;;;;;;5027925;28;20042;-77
2023/05/22 10:04:22;;;;;;;5.30;4.80;;;;;;;;;;5027725;28;20049;-77
2023/05/22 10:06:52;;;;;;;6.00;5.40;;;;;;;;;;5029289;28;20045;-77
2023/05/22 10:09:21;;;;;;;5.97;5.38;;;;;;;;;;5026053;28;20049;-77
2023/05/22 10:11:48;;;;;;;6.97;5.88;;;;;;;;;;5027265;28;20069;-76
2023/05/22 10:14:14;;;;;;;7.28;6.20;;;;;;;;;;5024228;28;20045;-77
2023/05/22 10:16:41;;;;;;;7.25;6.05;;;;;;;;;;5028825;28;20092;-76
2023/05/22 10:19:07;;;;;;;7.95;7.05;;;;;;;;;;5027280;28;20045;-77
2023/05/22 10:21:35;;;;;;;7.03;6.20;;;;;;;;;;5027461;28;20182;-78
2023/05/22 10:24:02;;;;;;;7.68;6.60;;;;;;;;;;5028369;28;20049;-77
2023/05/22 10:26:28;;;;;;;7.50;6.32;;;;;;;;;;5028548;28;20160;-77
2023/05/22 10:29:04;;;;;;;8.80;6.35;;;;;;;;;;5020842;28;20048;-76
2023/05/22 10:31:43;;;;;;;8.77;5.93;;;;;;;;;;5029452;28;20136;-77
2023/05/22 10:34:12;;;;;;;7.57;5.05;;;;;;;;;;5030099;28;20041;-76
2023/05/22 10:36:47;;;;;;;5.30;4.45;;;;;;;;;;5028959;28;20064;-77
2023/05/22 10:39:32;;;;;;;8.13;4.78;;;;;;;;;;5028482;28;20048;-77
2023/05/22 10:41:59;;;;;;;8.63;4.93;;;;;;;;;;5028797;28;20048;-77
2023/05/22 10:44:25;;;;;;;9.88;5.38;;;;;;;;;;5028755;28;20515;-77
2023/05/22 10:46:51;;;;;;;8.43;6.03;;;;;;;;;;5033707;28;20048;-77
2023/05/22 10:49:24;;;;;;;10.63;6.03;;;;;;;;;;5029685;28;20041;-77
2023/05/22 10:51:57;;;;;;;7.35;5.50;;;;;;;;;;5029576;28;20041;-77
2023/05/22 10:54:40;;;;;;;12.03;6.27;;;;;;;;;;5031374;28;20037;-78
2023/05/22 10:57:24;;;;;;;8.73;5.35;;;;;;;;;;5028523;28;20076;-77
2023/05/22 10:59:50;;;;;;;7.13;4.57;;;;;;;;;;5029114;28;20053;-77
2023/05/22 11:02:20;;;;;;;9.18;5.22;;;;;;;;;;5029541;28;20485;-77
2023/05/22 11:04:46;;;;;;;7.57;4.90;;;;;;;;;;5025117;28;20037;-77
2023/05/22 11:07:13;;;;;;;7.80;4.80;;;;;;;;;;5024496;28;20052;-77
2023/05/22 11:09:44;;;;;;;8.68;4.38;;;;;;;;;;5030646;28;20063;-76
2023/05/22 11:12:16;;;;;;;7.38;4.50;;;;;;;;;;5029548;28;20052;-77
2023/05/22 11:15:04;;;;;;;6.70;5.05;;;;;;;;;;5026852;28;20072;-77
2023/05/22 11:17:31;;;;;;;6.65;4.35;;;;;;;;;;5031182;28;20119;-77
2023/05/22 11:19:58;;;;;;;6.70;4.97;;;;;;;;;;5032332;28;20041;-77
2023/05/22 11:22:31;;;;;;;9.38;4.75;;;;;;;;;;5031988;28;20103;-77
2023/05/22 11:24:57;;;;;;;9.90;5.30;;;;;;;;;;5029238;28;20465;-78
2023/05/22 11:27:23;;;;;;;6.15;5.03;;;;;;;;;;5030592;28;20548;-77
2023/05/22 11:29:49;;;;;;;8.07;5.35;;;;;;;;;;5026965;28;20049;-77
2023/05/22 11:32:19;;;;;;;10.63;5.45;;;;;;;;;;5031099;28;20091;-76
2023/05/22 11:34:51;;;;;;;8.48;5.22;;;;;;;;;;5030874;28;20053;-77
2023/05/22 11:37:20;;;;;;;7.63;4.97;;;;;;;;;;5026074;28;20105;-77
2023/05/22 11:39:51;;;;;;;6.47;5.20;;;;;;;;;;5020969;28;20044;-77
2023/05/22 11:42:20;;;;;;;6.82;4.45;;;;;;;;;;5030423;28;20440;-77
2023/05/22 11:44:46;;;;;;;5.53;4.30;;;;;;;;;;5031250;28;22021;-77
2023/05/22 11:47:12;;;;;;;6.60;5.30;;;;;;;;;;5029605;28;20050;-77
2023/05/22 11:49:39;;;;;;;8.95;6.20;;;;;;;;;;5031504;28;20050;-77
2023/05/22 11:52:05;;;;;;;9.38;7.00;;;;;;;;;;5030780;28;20103;-77
2023/05/22 11:54:32;;;;;;;9.43;6.47;;;;;;;;;;5030666;28;20050;-77
2023/05/22 11:56:58;;;;;;;7.82;6.22;;;;;;;;;;5028061;28;20049;-77
2023/05/22 11:59:24;;;;;;;8.38;5.57;;;;;;;;;;5029774;28;20579;-78
2023/05/22 12:01:50;;;;;;;7.05;5.60;;;;;;;;;;5029759;28;20085;-77
2023/05/22 12:04:16;;;;;;;9.00;6.22;;;;;;;;;;5028131;28;20057;-77
2023/05/22 12:06:44;;;;;;;9.27;4.85;;;;;;;;;;5030570;28;20033;-77
2023/05/22 12:09:11;;;;;;;9.27;4.95;;;;;;;;;;5030779;28;20496;-77
2023/05/22 12:11:37;;;;;;;9.30;6.22;;;;;;;;;;5029969;28;20048;-77
2023/05/22 12:14:04;;;;;;;10.85;6.13;;;;;;;;;;5025977;28;20041;-77
2023/05/22 12:16:35;;;;;;;9.98;6.88;;;;;;;;;;5030499;28;20052;-77
2023/05/22 12:19:08;;;;;;;14.75;8.20;;;;;;;;;;5025754;28;20398;-77
2023/05/22 12:21:37;;;;;;;11.57;7.35;;;;;;;;;;5030692;28;20481;-77
2023/05/22 12:24:03;;;;;;;17.35;7.85;;;;;;;;;;5027314;28;20596;-77
2023/05/22 12:26:30;;;;;;;13.55;8.05;;;;;;;;;;5028877;28;20066;-77
2023/05/22 12:28:57;;;;;;;11.90;7.28;;;;;;;;;;5026987;28;20037;-77
2023/05/22 12:31:23;;;;;;;12.32;7.57;;;;;;;;;;5028291;28;20045;-77
2023/05/22 12:33:53;;;;;;;11.75;8.48;;;;;;;;;;5028046;28;20477;-77
2023/05/22 12:36:19;;;;;;;13.55;7.70;;;;;;;;;;5030270;28;20044;-76
2023/05/22 12:38:45;;;;;;;14.18;8.82;;;;;;;;;;5024342;28;20042;-77
2023/05/22 12:41:11;;;;;;;16.30;8.85;;;;;;;;;;5029538;28;20052;-77
2023/05/22 12:43:37;;;;;;;17.42;8.40;;;;;;;;;;5026698;28;20045;-77
2023/05/22 12:46:03;;;;;;;11.80;7.70;;;;;;;;;;5031168;28;20053;-78
2023/05/22 12:48:29;;;;;;;11.30;7.20;;;;;;;;;;5029008;28;20143;-78
2023/05/22 12:50:55;;;;;;;10.98;7.20;;;;;;;;;;5031408;28;20038;-77
2023/05/22 12:53:21;;;;;;;12.25;6.90;;;;;;;;;;5023546;28;20056;-76
2023/05/22 12:55:47;;;;;;;11.57;7.53;;;;;;;;;;5029994;28;20040;-76
2023/05/22 12:58:14;;;;;;;10.02;6.63;;;;;;;;;;5020130;28;20053;-77
2023/05/22 13:00:40;;;;;;;14.48;7.00;;;;;;;;;;5027121;28;20121;-77
2023/05/22 13:03:06;;;;;;;10.57;6.95;;;;;;;;;;5027162;28;20049;-77
2023/05/22 13:05:32;;;;;;;10.05;6.55;;;;;;;;;;5028078;28;20049;-77
2023/05/22 13:07:58;;;;;;;10.57;6.72;;;;;;;;;;5041271;28;20128;-77
2023/05/22 13:10:24;;;;;;;11.93;6.85;;;;;;;;;;5028335;28;20124;-77
2023/05/22 13:12:50;;;;;;;12.27;7.85;;;;;;;;;;5029658;28;20143;-77
2023/05/22 13:15:17;;;;;;;12.43;7.88;;;;;;;;;;5024150;28;20030;-78
2023/05/22 13:17:43;;;;;;;10.10;7.47;;;;;;;;;;5023050;28;20045;-77
2023/05/22 13:20:09;;;;;;;9.90;6.80;;;;;;;;;;5029897;28;20045;-77
2023/05/22 13:22:35;;;;;;;10.85;7.18;;;;;;;;;;5025103;28;20068;-77
2023/05/22 13:25:02;;;;;;;11.23;7.68;;;;;;;;;;5025530;28;20045;-78
2023/05/22 13:27:28;;;;;;;12.88;8.07;;;;;;;;;;5028130;28;20056;-77
2023/05/22 13:29:54;;;;;;;11.15;7.35;;;;;;;;;;5031728;28;20045;-77
2023/05/22 13:32:20;;;;;;;9.63;7.00;;;;;;;;;;5027060;28;20052;-77
2023/05/22 13:34:46;;;;;;;9.82;6.80;;;;;;;;;;5029883;28;20052;-77
2023/05/22 13:37:12;;;;;;;12.63;8.55;;;;;;;;;;5029008;28;20038;-77
2023/05/22 13:39:38;;;;;;;10.55;7.80;;;;;;;;;;5029154;28;20046;-77
2023/05/22 13:42:05;;;;;;;11.70;7.63;;;;;;;;;;5028006;28;20464;-77
2023/05/22 13:44:31;;;;;;;11.88;7.85;;;;;;;;;;5024487;28;20769;-77
2023/05/22 13:46:57;;;;;;;10.32;7.60;;;;;;;;;;5020234;28;20038;-78
2023/05/22 13:49:23;;;;;;;11.10;7.43;;;;;;;;;;5023335;28;20401;-78
2023/05/22 13:51:49;;;;;;;11.35;7.60;;;;;;;;;;5024828;28;20440;-79
2023/05/22 13:54:15;;;;;;;10.68;7.60;;;;;;;;;;5031943;28;20048;-77
2023/05/22 13:56:41;;;;;;;9.60;6.82;;;;;;;;;;5024753;28;20050;-77
2023/05/22 13:59:07;;;;;;;10.15;6.78;;;;;;;;;;5025678;28;20056;-76
2023/05/22 14:01:33;;;;;;;6.55;5.53;;;;;;;;;;5023937;28;20077;-77
2023/05/22 14:03:59;;;;;;;7.55;5.55;;;;;;;;;;5027983;28;20428;-77
2023/05/22 14:06:26;;;;;;;9.32;6.07;;;;;;;;;;5026016;28;20034;-76
2023/05/22 14:08:52;;;;;;;7.85;5.88;;;;;;;;;;5029848;28;20054;-77
2023/05/22 14:11:18;;;;;;;10.43;6.22;;;;;;;;;;5024653;28;20045;-77
2023/05/22 14:13:44;;;;;;;8.25;5.88;;;;;;;;;;5026845;28;20045;-77
2023/05/22 14:16:10;;;;;;;10.73;6.85;;;;;;;;;;5028583;28;20044;-76
2023/05/22 14:18:36;;;;;;;7.30;5.75;;;;;;;;;;5022437;28;20060;-77
2023/05/22 14:21:02;;;;;;;7.88;6.13;;;;;;;;;;5027968;28;20038;-77
2023/05/22 14:23:28;;;;;;;9.57;6.10;;;;;;;;;;5024665;28;20401;-77
2023/05/22 14:25:55;;;;;;;11.88;6.93;;;;;;;;;;5025976;28;20048;-78
2023/05/22 14:28:21;;;;;;;9.95;6.80;;;;;;;;;;5027746;28;20103;-78